Date,TemperatureHighF,TemperatureAvgF,TemperatureLowF,DewpointHighF,DewpointAvgF,DewpointLowF,HumidityHigh,HumidityAvg,HumidityLow,PressureMaxIn,PressureMinIn,WindSpeedMaxMPH,WindSpeedAvgMPH,GustSpeedMaxMPH,PrecipitationSumIn
2013-10-1,77.5,62.1,38.9,51.9,43.1,34.8,87,55,23,29.93,29.57,17,4,17,0.00
2013-10-2,80.8,60.3,35.2,66.2,47.4,32.3,90,67,32,29.96,29.73,24,5,24,0.15
2013-10-3,65.3,58.9,55.3,59.6,56.1,53.0,93,90,81,29.81,29.69,15,2,15,0.15
2013-10-4,64.0,58.0,53.7,61.7,56.0,52.0,94,93,91,29.84,29.63,20,8,20,0.02
2013-10-5,60.0,45.4,37.3,57.0,37.1,32.9,92,74,54,29.76,29.67,24,7,24,0.00
2013-10-6,47.4,43.9,39.4,45.0,40.9,36.8,93,89,83,29.92,29.70,23,5,23,0.18
2013-10-7,71.9,53.0,37.5,50.3,42.4,34.1,90,70,41,29.98,29.89,11,2,11,0.00
2013-10-8,77.1,62.3,50.1,48.1,44.2,39.9,69,53,34,29.90,29.74,31,10,31,0.00
2013-10-9,77.0,62.5,50.6,52.7,48.1,44.9,82,61,41,29.94,29.84,21,7,21,0.00
2013-10-10,79.3,64.4,51.4,55.1,49.2,44.9,80,60,39,29.93,29.72,28,9,28,0.00
2013-10-11,72.1,60.5,48.3,58.5,51.1,40.6,84,72,48,29.72,29.47,31,11,31,0.03
2013-10-12,61.9,48.4,29.0,41.0,33.6,23.3,83,60,29,30.22,29.70,33,8,33,0.00
2013-10-13,63.1,43.6,24.0,39.9,30.1,20.1,92,63,35,30.42,30.22,12,1,12,0.00
2013-10-14,53.0,45.9,39.1,46.9,38.2,30.6,90,75,58,30.34,29.69,26,6,26,0.83
2013-10-15,53.6,46.0,42.0,51.0,43.5,39.3,93,91,89,29.90,29.60,26,11,26,0.01
2013-10-16,52.9,42.7,32.6,39.8,35.6,28.6,92,78,42,29.99,29.89,18,5,18,0.01
2013-10-17,58.4,41.3,30.2,41.6,33.7,27.1,90,77,43,29.96,29.80,21,6,21,0.00
2013-10-18,49.4,39.7,29.3,34.4,29.5,24.6,88,69,41,30.04,29.89,22,5,22,0.00
2013-10-19,51.9,38.4,28.5,40.0,30.7,24.3,91,75,46,29.89,29.73,28,6,28,0.01
2013-10-20,55.9,41.4,31.1,41.1,33.4,26.6,85,73,55,29.95,29.63,30,8,30,0.00
2013-10-21,45.6,34.7,26.8,29.7,26.6,22.8,88,73,50,30.01,29.94,20,5,20,0.00
2013-10-22,39.7,34.3,29.7,30.1,26.7,24.5,90,74,59,30.09,29.92,14,2,14,0.03
2013-10-23,37.5,32.9,27.6,32.3,26.9,22.4,89,79,64,30.17,30.05,13,3,14,0.02
2013-10-24,47.9,34.8,19.2,31.7,26.0,15.4,92,72,43,30.36,30.16,22,6,22,0.00
2013-10-25,59.1,39.5,17.5,39.3,29.5,14.3,89,70,47,30.37,29.92,30,8,30,0.00
2013-10-26,46.7,37.5,23.6,35.0,27.3,18.1,85,68,47,30.15,29.91,25,6,25,0.00
2013-10-27,59.6,40.7,23.2,38.2,29.8,19.1,92,67,43,30.08,29.79,14,4,16,0.00
2013-10-28,42.3,35.8,29.7,31.6,28.4,25.8,87,75,64,30.33,30.06,24,9,24,0.00
2013-10-29,45.5,39.4,33.0,41.6,35.0,27.3,92,84,74,30.30,30.00,16,5,16,0.17
2013-10-30,50.0,45.0,39.1,48.3,43.2,37.4,94,94,92,30.00,29.69,13,2,17,0.12
2013-10-31,41.2,38.0,34.4,37.4,35.3,32.3,94,90,84,29.69,29.44,16,6,16,0.00